Time;durP1;ratioP1;P1;durP2;ratioP2;P2;SDS_P1;SDS_P2;PMS_P1;PMS_P2;Temp;Humidity;BMP_temperature;BMP_pressure;BME280_temperature;BME280_humidity;BME280_pressure;Samples;Min_cycle;Max_cycle;Signal;HPM_P1;HPM_P2
2021/03/19 00:00:07;;;;;;;4.93;3.30;;;;;;;5.24;79.26;101399.00;346845;28;1307;-69
2021/03/19 00:00:21;;;;;;;5.07;3.53;;;;;;;5.28;79.17;101399.81;346800;28;1094;-70
2021/03/19 00:00:33;;;;;;;6.00;3.65;;;;;;;5.29;79.77;101407.66;345154;28;48105;-69
2021/03/19 00:00:44;;;;;;;6.05;3.83;;;;;;;5.31;80.67;101405.00;346684;28;1157;-71
2021/03/19 00:00:55;;;;;;;4.68;3.60;;;;;;;5.31;80.11;101395.38;346784;28;1159;-70
2021/03/19 00:01:07;;;;;;;5.68;3.33;;;;;;;5.32;79.85;101398.88;346758;28;1144;-70
2021/03/19 00:01:18;;;;;;;6.07;3.47;;;;;;;5.31;80.19;101400.63;346734;28;1108;-70
2021/03/19 00:01:30;;;;;;;6.00;3.50;;;;;;;5.33;79.87;101398.88;346682;28;1196;-69
2021/03/19 00:01:42;;;;;;;4.38;3.38;;;;;;;5.32;79.82;101398.88;346791;28;1069;-70
2021/03/19 00:01:53;;;;;;;4.35;3.20;;;;;;;5.26;79.86;101392.84;345283;28;1089;-70
2021/03/19 00:02:05;;;;;;;5.18;3.50;;;;;;;5.32;79.25;101398.88;345351;28;1122;-69
2021/03/19 00:02:16;;;;;;;5.50;3.55;;;;;;;5.29;79.63;101397.19;345351;28;1101;-70
2021/03/19 00:02:28;;;;;;;7.13;3.70;;;;;;;5.28;79.49;101398.06;345114;28;1806;-69
2021/03/19 00:02:40;;;;;;;7.13;3.78;;;;;;;5.28;79.74;101399.81;345377;28;1164;-70
2021/03/19 00:02:53;;;;;;;5.30;3.70;;;;;;;5.32;80.39;101394.50;345279;28;1081;-70
2021/03/19 00:03:05;;;;;;;5.22;3.55;;;;;;;5.31;80.11;101395.38;345340;28;1228;-70
2021/03/19 00:03:16;;;;;;;3.97;3.38;;;;;;;5.34;79.81;101390.09;345269;28;1176;-68
2021/03/19 00:03:27;;;;;;;4.50;3.50;;;;;;;5.37;81.04;101391.81;345274;28;1130;-70
2021/03/19 00:03:38;;;;;;;4.80;3.67;;;;;;;5.34;80.06;101389.25;345343;28;1114;-71
2021/03/19 00:03:50;;;;;;;5.15;3.70;;;;;;;5.33;80.43;101395.34;345314;28;1095;-69
2021/03/19 00:04:03;;;;;;;5.60;3.70;;;;;;;5.32;79.85;101398.88;345343;28;1097;-70
2021/03/19 00:04:14;;;;;;;5.88;3.55;;;;;;;5.32;80.46;101391.03;345192;28;1090;-69
2021/03/19 00:04:25;;;;;;;6.90;3.70;;;;;;;5.35;80.49;101385.75;345280;28;1186;-70
2021/03/19 00:04:36;;;;;;;6.35;3.63;;;;;;;5.34;80.17;101392.72;345331;28;1145;-70
2021/03/19 00:04:47;;;;;;;6.00;3.70;;;;;;;5.30;80.09;101398.03;345310;28;2162;-69
2021/03/19 00:04:59;;;;;;;5.47;3.53;;;;;;;5.29;79.71;101393.66;345295;28;1198;-69
2021/03/19 00:05:12;;;;;;;5.53;3.50;;;;;;;5.26;79.54;101400.69;345231;28;1314;-67
2021/03/19 00:05:28;;;;;;;5.28;3.50;;;;;;;5.28;80.11;101395.44;345257;28;23671;-67
2021/03/19 00:05:39;;;;;;;5.38;3.63;;;;;;;5.30;80.62;101393.66;344409;28;71900;-67
2021/03/19 00:05:50;;;;;;;5.03;3.50;;;;;;;5.32;80.44;101397.13;346646;28;1956;-67
2021/03/19 00:06:02;;;;;;;4.93;3.47;;;;;;;5.33;80.82;101392.75;346674;28;1159;-69
2021/03/19 00:06:13;;;;;;;5.00;3.38;;;;;;;5.29;80.29;101396.28;346726;28;1066;-68
2021/03/19 00:06:24;;;;;;;5.20;3.50;;;;;;;5.25;80.05;101401.59;346818;28;1144;-70
2021/03/19 00:06:35;;;;;;;5.18;3.60;;;;;;;5.26;79.95;101395.47;346786;28;1176;-68
2021/03/19 00:06:47;;;;;;;5.18;3.70;;;;;;;5.25;79.25;101401.59;346810;28;1014;-68
2021/03/19 00:06:58;;;;;;;5.22;3.70;;;;;;;5.23;78.81;101403.38;346689;28;1424;-70
2021/03/19 00:07:10;;;;;;;5.32;3.70;;;;;;;5.25;79.18;101390.25;346662;28;1149;-68
2021/03/19 00:07:24;;;;;;;5.03;3.42;;;;;;;5.26;79.72;101400.69;346795;28;1042;-70
2021/03/19 00:07:45;;;;;;;5.65;3.40;;;;;;;5.25;79.57;101401.59;345988;28;25388;-70
2021/03/19 00:07:58;;;;;;;5.55;3.20;;;;;;;5.26;79.56;101398.09;344385;28;68873;-68
2021/03/19 00:08:09;;;;;;;5.68;3.40;;;;;;;5.30;79.76;101393.66;346781;28;1076;-69
2021/03/19 00:08:20;;;;;;;6.00;3.60;;;;;;;5.28;79.07;101402.44;346885;28;1093;-70
2021/03/19 00:08:31;;;;;;;5.35;3.55;;;;;;;5.30;79.58;101403.28;346812;28;1089;-70
2021/03/19 00:08:43;;;;;;;5.72;3.40;;;;;;;5.23;79.30;101398.13;345349;28;2147;-70
2021/03/19 00:08:54;;;;;;;5.22;3.13;;;;;;;5.19;78.04;101395.56;345225;28;1127;-69
2021/03/19 00:09:08;;;;;;;5.18;3.05;;;;;;;5.13;78.07;101396.53;345287;28;1146;-68
2021/03/19 00:09:19;;;;;;;5.60;3.22;;;;;;;5.14;78.50;101403.50;344461;28;23956;-69
2021/03/19 00:09:30;;;;;;;5.72;3.38;;;;;;;5.04;77.39;101400.13;345325;28;1488;-69
2021/03/19 00:09:42;;;;;;;6.38;3.33;;;;;;;5.10;77.84;101399.19;345293;28;1304;-68
2021/03/19 00:09:53;;;;;;;5.20;3.30;;;;;;;5.11;78.34;101400.94;345190;28;1058;-69
2021/03/19 00:10:05;;;;;;;4.75;3.22;;;;;;;5.07;77.43;101401.84;345327;28;1094;-70
2021/03/19 00:10:20;;;;;;;4.82;3.20;;;;;;;5.09;78.69;101394.81;345292;28;1093;-69
2021/03/19 00:10:33;;;;;;;4.25;3.10;;;;;;;5.12;78.33;101399.16;342879;28;71467;-69
2021/03/19 00:10:45;;;;;;;3.70;2.90;;;;;;;5.12;77.47;101402.63;346655;28;1166;-69
2021/03/19 00:10:56;;;;;;;3.95;2.97;;;;;;;5.11;78.55;101400.94;346680;28;1233;-69
2021/03/19 00:11:07;;;;;;;3.70;3.03;;;;;;;5.14;78.06;101395.63;346791;28;1266;-70
2021/03/19 00:11:19;;;;;;;4.47;3.10;;;;;;;5.10;78.75;101396.56;346781;28;1146;-69
2021/03/19 00:11:30;;;;;;;5.00;3.10;;;;;;;5.14;78.04;101397.38;346814;28;1156;-69
2021/03/19 00:11:41;;;;;;;4.93;3.10;;;;;;;5.11;78.35;101398.31;346750;28;1097;-69
2021/03/19 00:11:52;;;;;;;4.88;3.00;;;;;;;5.13;78.27;101401.75;346708;28;1080;-68
2021/03/19 00:12:04;;;;;;;5.24;2.86;;;;;;;5.17;78.22;101402.59;346719;28;1095;-68
2021/03/19 00:12:15;;;;;;;5.53;3.00;;;;;;;5.10;78.53;101401.81;346833;28;1089;-67
2021/03/19 00:12:26;;;;;;;5.55;3.08;;;;;;;5.09;78.73;101400.91;346827;28;1090;-67
2021/03/19 00:12:39;;;;;;;6.06;3.20;;;;;;;5.06;78.06;101398.34;346654;28;1217;-67
2021/03/19 00:12:52;;;;;;;6.07;3.15;;;;;;;5.03;78.34;101405.41;346784;28;1231;-68
2021/03/19 00:13:08;;;;;;;4.65;3.00;;;;;;;4.99;77.31;101401.09;346676;28;1069;-68
2021/03/19 00:13:20;;;;;;;4.85;3.00;;;;;;;4.99;77.77;101399.31;344353;28;72019;-67
2021/03/19 00:13:31;;;;;;;5.47;3.00;;;;;;;5.06;77.71;101406.22;346788;28;1145;-69
2021/03/19 00:13:43;;;;;;;5.02;2.90;;;;;;;5.09;78.76;101402.69;346654;28;1884;-69
2021/03/19 00:13:54;;;;;;;4.97;2.97;;;;;;;5.14;79.13;101405.22;346774;28;1219;-69
2021/03/19 00:14:07;;;;;;;5.00;3.15;;;;;;;5.12;78.54;101404.41;346736;28;1188;-69
2021/03/19 00:14:18;;;;;;;6.85;3.42;;;;;;;5.07;78.21;101407.09;346758;28;1152;-69
2021/03/19 00:14:29;;;;;;;7.00;3.60;;;;;;;5.12;79.84;101405.25;346783;28;1300;-70
2021/03/19 00:14:40;;;;;;;5.25;3.42;;;;;;;5.15;79.21;101400.00;346587;28;1270;-70
2021/03/19 00:14:52;;;;;;;4.45;3.15;;;;;;;5.16;78.68;101409.56;346806;28;1160;-68
2021/03/19 00:15:04;;;;;;;4.05;2.92;;;;;;;5.20;79.07;101410.41;346799;28;1074;-68
2021/03/19 00:15:18;;;;;;;3.58;3.00;;;;;;;5.23;79.97;101403.38;346730;28;1089;-69
2021/03/19 00:15:30;;;;;;;4.25;3.05;;;;;;;5.24;79.95;101404.22;345844;28;25377;-69
2021/03/19 00:15:41;;;;;;;4.90;3.17;;;;;;;5.19;78.85;101399.06;346714;28;1224;-68
2021/03/19 00:15:52;;;;;;;4.50;3.22;;;;;;;5.13;78.97;101409.63;346787;28;1257;-70
2021/03/19 00:16:04;;;;;;;4.28;3.17;;;;;;;5.08;77.89;101408.81;346621;28;1127;-69
2021/03/19 00:16:15;;;;;;;4.18;3.00;;;;;;;5.09;78.99;101406.16;346739;28;1106;-69
2021/03/19 00:16:27;;;;;;;5.22;3.05;;;;;;;5.09;78.51;101405.31;345199;28;1069;-68
2021/03/19 00:16:39;;;;;;;5.60;3.10;;;;;;;5.09;79.15;101400.06;345278;28;1111;-69
2021/03/19 00:16:50;;;;;;;5.32;2.92;;;;;;;5.09;78.38;101405.31;345289;28;1210;-68
2021/03/19 00:17:02;;;;;;;5.47;3.10;;;;;;;5.09;77.87;101406.16;345334;28;1074;-69
2021/03/19 00:17:13;;;;;;;5.13;3.20;;;;;;;5.12;79.41;101401.78;345282;28;1070;-68
2021/03/19 00:17:24;;;;;;;5.55;3.28;;;;;;;5.15;79.77;101402.63;345219;28;1169;-69
2021/03/19 00:17:37;;;;;;;5.57;3.30;;;;;;;5.06;78.35;101402.72;345313;28;1107;-69
2021/03/19 00:18:08;;;;;;;5.55;3.10;;;;;;;5.07;78.21;101407.09;344070;28;35860;-68
2021/03/19 00:18:20;;;;;;;5.32;3.08;;;;;;;5.06;79.27;101400.97;344096;28;1105;-70
2021/03/19 00:18:31;;;;;;;4.53;3.10;;;;;;;5.12;78.83;101405.25;345308;28;1111;-69
2021/03/19 00:18:44;;;;;;;4.55;3.17;;;;;;;5.14;79.49;101403.50;345182;28;1115;-70
2021/03/19 00:18:55;;;;;;;4.54;3.10;;;;;;;5.05;78.51;101398.38;345306;28;1165;-70
2021/03/19 00:19:08;;;;;;;4.03;3.13;;;;;;;5.06;78.13;101398.34;345302;28;1106;-69
2021/03/19 00:19:21;;;;;;;3.67;3.17;;;;;;;5.10;79.22;101396.56;345211;28;1208;-70
2021/03/19 00:19:32;;;;;;;4.13;3.22;;;;;;;5.11;78.97;101398.31;345309;28;1078;-69
2021/03/19 00:19:43;;;;;;;4.60;3.30;;;;;;;5.13;79.17;101408.75;345279;28;1197;-69
2021/03/19 00:19:54;;;;;;;4.82;3.25;;;;;;;5.08;78.15;101396.59;345269;28;1166;-69
2021/03/19 00:20:08;;;;;;;4.68;3.20;;;;;;;5.05;77.30;101395.75;345284;28;1157;-70
2021/03/19 00:20:20;;;;;;;4.30;3.05;;;;;;;5.03;77.82;101395.78;344472;28;25122;-70
2021/03/19 00:20:34;;;;;;;5.10;3.10;;;;;;;5.02;77.66;101399.28;345358;28;971;-69
2021/03/19 00:20:46;;;;;;;5.70;3.03;;;;;;;5.00;77.96;101393.22;344500;28;24007;-70
2021/03/19 00:20:58;;;;;;;6.07;3.08;;;;;;;5.01;78.47;101392.31;345201;28;1213;-69
2021/03/19 00:21:09;;;;;;;5.22;3.20;;;;;;;5.03;77.77;101398.41;345143;28;1189;-69
2021/03/19 00:21:20;;;;;;;4.22;3.30;;;;;;;5.03;78.06;101395.78;345202;28;1156;-69
2021/03/19 00:21:32;;;;;;;3.75;3.00;;;;;;;5.04;78.13;101394.03;345297;28;1159;-69
2021/03/19 00:21:44;;;;;;;4.35;3.00;;;;;;;5.06;77.12;101394.88;345295;28;1152;-70
2021/03/19 00:21:55;;;;;;;4.28;2.90;;;;;;;5.09;77.76;101400.91;345258;28;2022;-68
2021/03/19 00:22:06;;;;;;;3.90;3.00;;;;;;;5.08;78.54;101395.72;345195;28;1190;-69
2021/03/19 00:22:18;;;;;;;4.30;3.10;;;;;;;5.08;77.70;101399.22;345262;28;1138;-70
2021/03/19 00:22:29;;;;;;;4.14;3.02;;;;;;;5.05;78.33;101395.75;346200;28;1120;-68
2021/03/19 00:22:40;;;;;;;4.45;2.95;;;;;;;5.01;76.78;101391.44;346780;28;1122;-70
2021/03/19 00:22:53;;;;;;;4.80;2.90;;;;;;;4.99;77.83;101393.25;346746;28;1140;-70
2021/03/19 00:23:05;;;;;;;4.18;2.95;;;;;;;4.97;77.43;101387.13;346712;28;1098;-69
2021/03/19 00:23:16;;;;;;;3.80;2.90;;;;;;;4.98;77.01;101392.34;346717;28;1171;-69
2021/03/19 00:23:27;;;;;;;4.72;3.05;;;;;;;4.93;77.03;101381.97;346751;28;1133;-70
2021/03/19 00:23:39;;;;;;;5.80;2.90;;;;;;;4.87;77.48;101384.63;346746;28;1145;-69
2021/03/19 00:23:50;;;;;;;5.47;2.65;;;;;;;4.85;77.82;101394.28;346703;28;1082;-70
2021/03/19 00:24:01;;;;;;;4.20;2.40;;;;;;;4.85;78.17;101385.53;346631;28;1077;-67
2021/03/19 00:24:12;;;;;;;3.53;2.50;;;;;;;4.87;77.22;101386.41;346737;28;1223;-69
2021/03/19 00:24:23;;;;;;;3.55;2.58;;;;;;;4.81;76.07;101391.69;346774;28;1165;-68
2021/03/19 00:24:34;;;;;;;4.00;2.60;;;;;;;4.77;76.23;101388.28;346720;28;1094;-70
2021/03/19 00:24:47;;;;;;;5.32;2.67;;;;;;;4.76;76.89;101381.28;346703;28;1138;-70
2021/03/19 00:24:59;;;;;;;4.60;2.67;;;;;;;4.71;76.20;101380.47;345845;28;25394;-70
2021/03/19 00:25:12;;;;;;;4.05;2.70;;;;;;;4.75;76.76;101385.69;346770;28;1217;-70
2021/03/19 00:25:23;;;;;;;3.38;2.38;;;;;;;4.75;77.62;101379.56;346759;28;1104;-69
2021/03/19 00:25:35;;;;;;;4.03;2.45;;;;;;;4.76;77.28;101384.78;346829;28;1200;-70
2021/03/19 00:25:46;;;;;;;4.47;2.50;;;;;;;4.76;77.43;101386.53;346675;28;1070;-71
2021/03/19 00:25:57;;;;;;;4.22;2.47;;;;;;;4.74;76.51;101381.31;346627;28;1106;-69
2021/03/19 00:26:08;;;;;;;4.47;2.42;;;;;;;4.79;77.09;101381.25;346686;28;1957;-70
2021/03/19 00:26:20;;;;;;;4.32;2.50;;;;;;;4.75;76.52;101376.94;346734;28;1169;-70
2021/03/19 00:26:32;;;;;;;4.15;2.58;;;;;;;4.76;76.92;101373.44;346690;28;1026;-70
2021/03/19 00:26:43;;;;;;;5.38;2.80;;;;;;;4.81;76.11;101379.50;346501;28;1184;-69
2021/03/19 00:26:54;;;;;;;5.75;2.90;;;;;;;4.85;77.39;101385.53;346736;28;1130;-69
2021/03/19 00:27:05;;;;;;;4.90;2.80;;;;;;;4.86;77.42;101380.31;346703;28;1189;-70
2021/03/19 00:27:16;;;;;;;5.38;2.78;;;;;;;4.90;77.77;101384.63;346755;28;1026;-69
2021/03/19 00:27:27;;;;;;;4.50;2.60;;;;;;;4.89;78.17;101377.66;346779;28;1041;-70
2021/03/19 00:27:39;;;;;;;3.75;2.53;;;;;;;4.88;77.87;101377.66;346713;28;1098;-70
2021/03/19 00:27:50;;;;;;;3.13;2.47;;;;;;;4.93;77.29;101376.72;346793;28;1156;-68
2021/03/19 00:28:02;;;;;;;3.50;2.60;;;;;;;4.96;76.74;101375.81;346753;28;1077;-70
2021/03/19 00:28:14;;;;;;;4.63;2.78;;;;;;;4.95;78.41;101375.84;346763;28;1163;-70
2021/03/19 00:28:26;;;;;;;5.57;2.88;;;;;;;4.99;77.18;101374.91;346788;28;1215;-70
2021/03/19 00:28:37;;;;;;;5.47;2.67;;;;;;;5.00;77.46;101376.63;346534;28;1123;-68
2021/03/19 00:28:49;;;;;;;5.88;2.74;;;;;;;5.01;77.49;101373.13;346715;28;1126;-69
2021/03/19 00:29:00;;;;;;;4.80;2.88;;;;;;;5.04;78.27;101373.97;346775;28;1041;-69
2021/03/19 00:29:11;;;;;;;4.35;2.78;;;;;;;5.07;77.65;101375.66;346746;28;1066;-70
2021/03/19 00:29:22;;;;;;;4.60;2.70;;;;;;;5.06;78.20;101368.69;346672;28;1138;-70
2021/03/19 00:29:33;;;;;;;5.00;2.78;;;;;;;5.09;77.22;101371.25;346595;28;1213;-69
2021/03/19 00:29:44;;;;;;;4.40;2.90;;;;;;;5.08;78.23;101377.38;346760;28;1069;-68
2021/03/19 00:29:55;;;;;;;4.35;2.90;;;;;;;5.05;78.22;101377.44;346797;28;1057;-69
2021/03/19 00:30:10;;;;;;;3.97;2.83;;;;;;;4.99;76.72;101374.91;346745;28;1270;-70
2021/03/19 00:30:22;;;;;;;3.53;2.63;;;;;;;4.93;76.02;101375.84;345118;28;48367;-69
2021/03/19 00:30:34;;;;;;;4.28;2.45;;;;;;;4.90;75.92;101374.16;346576;28;1591;-69
2021/03/19 00:30:47;;;;;;;4.85;2.50;;;;;;;4.93;76.29;101371.47;346743;28;1057;-71
2021/03/19 00:30:58;;;;;;;4.82;2.65;;;;;;;4.95;77.15;101368.00;346720;28;1077;-70
2021/03/19 00:31:09;;;;;;;3.70;2.53;;;;;;;4.90;76.66;101373.25;346705;28;1192;-69
2021/03/19 00:31:20;;;;;;;4.28;2.56;;;;;;;4.92;76.89;101368.88;346531;28;1157;-69
2021/03/19 00:31:32;;;;;;;3.75;2.40;;;;;;;4.95;76.79;101374.06;346764;28;1102;-70
2021/03/19 00:31:43;;;;;;;3.70;2.53;;;;;;;4.93;76.54;101363.63;346789;28;1176;-70
2021/03/19 00:31:55;;;;;;;3.58;2.50;;;;;;;4.98;76.52;101368.78;346766;28;1082;-70
2021/03/19 00:32:06;;;;;;;3.76;2.50;;;;;;;5.01;77.49;101368.75;346735;28;1070;-69
2021/03/19 00:32:17;;;;;;;3.83;2.50;;;;;;;4.98;76.38;101370.56;346609;28;1089;-69
2021/03/19 00:32:29;;;;;;;4.40;3.08;;;;;;;4.98;76.26;101367.94;346743;28;1132;-69
2021/03/19 00:32:42;;;;;;;4.13;3.10;;;;;;;4.97;77.30;101368.81;346775;28;1081;-71
2021/03/19 00:32:53;;;;;;;3.94;2.80;;;;;;;4.99;76.63;101367.06;346756;28;1221;-69
2021/03/19 00:33:05;;;;;;;3.60;2.40;;;;;;;4.99;76.36;101359.19;346718;28;1123;-70
2021/03/19 00:33:17;;;;;;;3.95;2.40;;;;;;;5.01;77.17;101360.88;346661;28;1115;-70
2021/03/19 00:33:29;;;;;;;3.94;2.46;;;;;;;5.01;77.42;101368.75;346662;28;1136;-70
2021/03/19 00:33:41;;;;;;;5.40;2.40;;;;;;;5.01;75.96;101366.13;346673;28;1074;-70
2021/03/19 00:33:52;;;;;;;5.88;2.38;;;;;;;5.03;77.04;101363.50;346741;28;1081;-70
2021/03/19 00:34:03;;;;;;;5.28;2.47;;;;;;;5.02;77.07;101364.38;346767;28;1070;-70
2021/03/19 00:34:14;;;;;;;3.88;2.47;;;;;;;5.00;76.52;101366.16;346668;28;1140;-69
2021/03/19 00:34:25;;;;;;;4.60;2.47;;;;;;;4.93;75.97;101361.00;346746;28;1050;-70
2021/03/19 00:34:37;;;;;;;4.55;2.30;;;;;;;4.93;76.54;101363.63;345323;28;1149;-70
2021/03/19 00:34:48;;;;;;;5.03;2.30;;;;;;;4.93;75.84;101360.13;345336;28;1090;-70
2021/03/19 00:34:59;;;;;;;3.90;2.08;;;;;;;4.88;76.12;101349.72;345262;28;1200;-69
2021/03/19 00:35:11;;;;;;;3.55;1.98;;;;;;;4.92;75.73;101367.13;345282;28;1070;-70
2021/03/19 00:35:23;;;;;;;3.90;2.05;;;;;;;4.91;75.92;101365.38;345198;28;1185;-69
2021/03/19 00:35:34;;;;;;;3.80;2.20;;;;;;;4.96;75.48;101359.22;345263;28;1082;-70
2021/03/19 00:35:46;;;;;;;3.38;2.25;;;;;;;4.95;75.71;101353.13;345357;28;1034;-70
2021/03/19 00:35:57;;;;;;;3.25;2.10;;;;;;;5.02;76.78;101361.78;345263;28;1125;-69
2021/03/19 00:36:08;;;;;;;2.92;2.20;;;;;;;5.03;76.36;101363.50;345209;28;1162;-69
2021/03/19 00:36:19;;;;;;;3.30;2.30;;;;;;;5.00;76.64;101353.06;345294;28;1069;-70
2021/03/19 00:36:31;;;;;;;4.25;2.38;;;;;;;4.99;75.76;101356.59;345772;28;1070;-70
2021/03/19 00:36:43;;;;;;;4.47;2.38;;;;;;;5.00;76.43;101358.28;346765;28;1085;-68
2021/03/19 00:36:54;;;;;;;3.40;2.20;;;;;;;5.02;75.68;101356.53;346697;28;1089;-70
2021/03/19 00:37:05;;;;;;;3.30;2.22;;;;;;;4.99;75.59;101346.97;346737;28;1161;-70
2021/03/19 00:37:17;;;;;;;3.60;2.30;;;;;;;5.02;75.61;101352.16;346743;28;1158;-69
2021/03/19 00:37:28;;;;;;;3.47;2.22;;;;;;;5.01;76.59;101358.25;346683;28;1069;-70
2021/03/19 00:37:39;;;;;;;3.53;2.25;;;;;;;5.02;76.43;101360.00;346615;28;1255;-70
2021/03/19 00:37:50;;;;;;;4.15;2.30;;;;;;;5.04;76.29;101350.41;346599;28;1101;-68
2021/03/19 00:38:03;;;;;;;3.65;2.20;;;;;;;5.04;76.29;101346.88;345254;28;1058;-68
2021/03/19 00:38:14;;;;;;;4.13;2.22;;;;;;;5.08;76.33;101356.44;345251;28;1297;-69
2021/03/19 00:38:25;;;;;;;3.60;2.20;;;;;;;5.08;77.00;101351.19;345318;28;1087;-70
2021/03/19 00:38:36;;;;;;;3.35;2.40;;;;;;;5.09;76.54;101347.69;345334;28;1093;-70
2021/03/19 00:38:48;;;;;;;2.90;2.38;;;;;;;5.11;76.49;101353.78;345208;28;1149;-70
2021/03/19 00:39:00;;;;;;;3.30;2.40;;;;;;;5.10;76.59;101349.44;345249;28;1166;-70
2021/03/19 00:39:11;;;;;;;3.55;2.42;;;;;;;5.12;77.14;101352.88;345261;28;1144;-69
2021/03/19 00:39:22;;;;;;;4.20;2.50;;;;;;;5.10;76.64;101360.75;345281;28;1038;-69
2021/03/19 00:39:34;;;;;;;4.00;2.30;;;;;;;5.09;77.01;101358.16;345271;28;1027;-70
2021/03/19 00:39:45;;;;;;;4.03;2.10;;;;;;;5.06;76.26;101359.06;345110;28;1069;-70
2021/03/19 00:39:56;;;;;;;3.47;2.00;;;;;;;5.03;76.40;101360.88;345271;28;1058;-70
2021/03/19 00:40:13;;;;;;;3.34;2.18;;;;;;;5.05;77.03;101356.47;345327;28;1075;-70
2021/03/19 00:40:24;;;;;;;3.20;2.20;;;;;;;5.03;76.59;101351.28;342945;28;71929;-70
2021/03/19 00:40:36;;;;;;;3.08;2.10;;;;;;;5.06;76.32;101358.22;345334;28;1039;-70
2021/03/19 00:40:48;;;;;;;3.08;2.15;;;;;;;5.08;75.65;101356.44;345207;28;1082;-69
2021/03/19 00:40:59;;;;;;;4.18;2.28;;;;;;;5.02;75.82;101354.78;345110;28;1138;-69
2021/03/19 00:41:11;;;;;;;4.30;2.22;;;;;;;5.03;76.30;101361.75;345213;28;1149;-70
2021/03/19 00:41:22;;;;;;;3.75;2.15;;;;;;;5.03;76.43;101347.81;345295;28;1380;-70
2021/03/19 00:41:33;;;;;;;3.80;2.25;;;;;;;5.00;75.00;101347.81;345167;28;1185;-69
2021/03/19 00:41:44;;;;;;;4.07;2.20;;;;;;;4.98;76.00;101347.84;345215;28;2057;-71
2021/03/19 00:41:55;;;;;;;5.13;2.20;;;;;;;4.99;74.75;101348.72;346330;28;1146;-70
2021/03/19 00:42:08;;;;;;;4.00;2.08;;;;;;;5.03;75.67;101358.28;346733;28;1097;-70
2021/03/19 00:42:19;;;;;;;4.30;2.10;;;;;;;5.00;75.66;101353.94;346488;28;1275;-70
2021/03/19 00:42:31;;;;;;;3.55;2.15;;;;;;;4.97;75.00;101353.97;346593;28;1118;-70
2021/03/19 00:42:43;;;;;;;3.80;2.22;;;;;;;4.97;75.53;101350.50;346701;28;1349;-70
2021/03/19 00:42:54;;;;;;;3.33;2.30;;;;;;;4.95;75.46;101337.44;346752;28;1195;-70
2021/03/19 00:43:07;;;;;;;3.88;2.20;;;;;;;4.93;75.50;101355.78;346714;28;1203;-70
2021/03/19 00:43:18;;;;;;;3.58;2.10;;;;;;;4.91;75.24;101346.22;346801;28;1077;-71
2021/03/19 00:43:29;;;;;;;3.50;2.13;;;;;;;4.96;74.91;101349.63;346683;28;1181;-70
2021/03/19 00:43:40;;;;;;;3.38;2.20;;;;;;;4.98;75.04;101344.38;346614;28;1265;-70
2021/03/19 00:43:51;;;;;;;3.42;2.25;;;;;;;4.98;75.72;101339.13;346739;28;1291;-70
2021/03/19 00:44:03;;;;;;;2.70;2.17;;;;;;;5.01;75.53;101339.09;346734;28;1107;-70
2021/03/19 00:44:14;;;;;;;2.92;2.25;;;;;;;5.01;75.52;101341.72;346766;28;1160;-70
2021/03/19 00:44:25;;;;;;;2.53;2.20;;;;;;;5.01;75.80;101339.09;346675;28;1068;-70
2021/03/19 00:44:39;;;;;;;2.72;2.38;;;;;;;5.04;75.70;101339.91;346657;28;1309;-68
2021/03/19 00:44:51;;;;;;;2.75;2.22;;;;;;;5.04;76.03;101339.03;346733;28;1152;-70
2021/03/19 00:45:03;;;;;;;2.50;2.13;;;;;;;5.02;76.32;101346.06;346776;28;1113;-70
2021/03/19 00:45:16;;;;;;;2.52;2.12;;;;;;;5.03;75.69;101342.56;346724;28;1236;-70
2021/03/19 00:45:33;;;;;;;3.17;2.20;;;;;;;5.08;76.66;101338.09;344285;28;71436;-70
2021/03/19 00:45:45;;;;;;;3.00;2.05;;;;;;;5.09;75.83;101339.84;346729;28;1082;-70
2021/03/19 00:45:56;;;;;;;3.28;2.28;;;;;;;5.07;75.60;101333.78;346773;28;1017;-69
2021/03/19 00:46:08;;;;;;;3.58;2.40;;;;;;;5.06;76.40;101337.28;346746;28;1190;-70
2021/03/19 00:46:19;;;;;;;3.67;2.40;;;;;;;5.06;76.00;101332.88;346565;28;1115;-70
2021/03/19 00:46:31;;;;;;;3.17;2.17;;;;;;;4.95;75.22;101332.19;346646;28;1902;-70
2021/03/19 00:46:44;;;;;;;2.90;2.10;;;;;;;4.90;75.54;101332.25;346721;28;1168;-69
2021/03/19 00:46:55;;;;;;;2.83;1.90;;;;;;;4.81;74.46;101340.25;346734;28;1213;-70
2021/03/19 00:47:07;;;;;;;3.40;1.90;;;;;;;4.86;75.94;101341.03;346748;28;1103;-70
2021/03/19 00:47:18;;;;;;;4.38;2.08;;;;;;;4.92;75.27;101332.25;346687;28;1155;-69
2021/03/19 00:47:31;;;;;;;4.10;2.20;;;;;;;4.92;75.31;101342.72;346697;28;1073;-70
2021/03/19 00:47:43;;;;;;;3.90;2.10;;;;;;;4.94;75.40;101338.31;346613;28;1288;-70
2021/03/19 00:47:55;;;;;;;3.95;2.25;;;;;;;4.96;75.77;101347.03;346719;28;1104;-70
2021/03/19 00:48:07;;;;;;;4.82;2.40;;;;;;;4.93;75.40;101340.06;346683;28;1228;-67
2021/03/19 00:48:33;;;;;;;5.38;2.60;;;;;;;4.99;76.03;101340.88;344389;28;71438;-70
2021/03/19 00:48:45;;;;;;;5.38;2.40;;;;;;;5.02;76.97;101346.91;346752;28;1167;-70
2021/03/19 00:48:56;;;;;;;3.97;2.33;;;;;;;5.02;76.35;101339.06;346756;28;1269;-70
2021/03/19 00:49:07;;;;;;;3.28;2.40;;;;;;;5.02;76.70;101341.69;346629;28;1161;-71
2021/03/19 00:49:18;;;;;;;3.67;2.40;;;;;;;5.01;76.66;101349.56;346750;28;1399;-69
2021/03/19 00:49:29;;;;;;;3.63;2.35;;;;;;;4.99;76.20;101346.97;346723;28;1165;-69
2021/03/19 00:49:40;;;;;;;3.63;2.20;;;;;;;5.01;76.84;101345.19;346740;28;1066;-68
2021/03/19 00:49:52;;;;;;;3.13;2.13;;;;;;;5.01;75.58;101349.56;346643;28;1081;-70
2021/03/19 00:50:12;;;;;;;3.63;2.13;;;;;;;4.93;76.33;101353.16;346586;28;1107;-70
2021/03/19 00:50:35;;;;;;;3.72;2.38;;;;;;;4.93;75.85;101341.81;344355;28;71495;-70
2021/03/19 00:50:46;;;;;;;4.50;2.38;;;;;;;4.97;76.42;101353.97;344272;28;71360;-70
2021/03/19 00:50:57;;;;;;;3.70;2.50;;;;;;;4.97;76.26;101342.63;346535;28;1131;-70
2021/03/19 00:51:08;;;;;;;3.03;2.40;;;;;;;5.00;75.82;101347.81;346785;28;1087;-70
2021/03/19 00:51:19;;;;;;;3.82;2.42;;;;;;;5.02;75.53;101348.69;345287;28;1157;-69
2021/03/19 00:51:30;;;;;;;3.42;2.40;;;;;;;5.03;75.47;101342.56;345245;28;1073;-70
2021/03/19 00:51:42;;;;;;;3.65;2.50;;;;;;;5.06;76.30;101351.22;345215;28;1107;-70
2021/03/19 00:51:53;;;;;;;3.60;2.65;;;;;;;5.05;77.25;101340.78;345212;28;1098;-70
2021/03/19 00:52:05;;;;;;;3.33;2.65;;;;;;;5.02;76.02;101344.28;345235;28;1148;-70
2021/03/19 00:52:16;;;;;;;3.03;2.58;;;;;;;5.02;75.99;101346.91;345329;28;1061;-70
2021/03/19 00:52:27;;;;;;;3.25;2.47;;;;;;;5.05;76.02;101340.78;345303;28;1066;-70
2021/03/19 00:52:39;;;;;;;4.10;2.58;;;;;;;5.04;75.76;101341.66;345231;28;1098;-70
2021/03/19 00:52:51;;;;;;;4.50;2.58;;;;;;;5.05;75.79;101341.63;345109;28;1078;-70
2021/03/19 00:53:04;;;;;;;4.55;2.60;;;;;;;5.08;76.47;101346.84;345263;28;1163;-69
2021/03/19 00:53:15;;;;;;;4.63;2.50;;;;;;;5.10;77.24;101347.66;345762;28;1050;-70
2021/03/19 00:53:26;;;;;;;4.40;2.60;;;;;;;5.10;76.94;101345.06;346639;28;1116;-68
2021/03/19 00:53:38;;;;;;;4.00;2.60;;;;;;;5.05;76.01;101348.63;346757;28;1155;-70
2021/03/19 00:53:49;;;;;;;3.20;2.58;;;;;;;5.06;76.88;101347.75;346604;28;1083;-69
2021/03/19 00:54:00;;;;;;;2.63;2.30;;;;;;;5.08;77.26;101345.97;345142;28;1637;-70
2021/03/19 00:54:11;;;;;;;2.75;2.20;;;;;;;5.05;75.73;101335.53;345301;28;1230;-69
2021/03/19 00:54:22;;;;;;;3.25;2.33;;;;;;;5.08;76.34;101341.59;345259;28;1075;-70
2021/03/19 00:54:34;;;;;;;3.53;2.40;;;;;;;5.10;77.05;101341.59;345196;28;1532;-70
2021/03/19 00:54:45;;;;;;;3.45;2.33;;;;;;;5.07;76.11;101334.63;345127;28;1139;-71
2021/03/19 00:54:56;;;;;;;3.38;2.33;;;;;;;5.12;76.93;101344.16;345200;28;1181;-68
2021/03/19 00:55:10;;;;;;;3.33;2.20;;;;;;;5.14;76.23;101345.00;345304;28;1145;-70
2021/03/19 00:55:22;;;;;;;4.38;2.40;;;;;;;5.14;76.93;101339.75;344488;28;24071;-69
2021/03/19 00:55:34;;;;;;;4.40;2.38;;;;;;;5.15;76.61;101341.50;345186;28;1070;-70
2021/03/19 00:55:45;;;;;;;3.72;2.40;;;;;;;5.16;77.04;101333.63;345083;28;1151;-70
2021/03/19 00:55:56;;;;;;;3.08;2.33;;;;;;;5.17;77.00;101332.72;345938;28;1070;-70
2021/03/19 00:56:08;;;;;;;3.00;2.40;;;;;;;5.19;76.40;101338.84;346650;28;1232;-70
2021/03/19 00:56:19;;;;;;;3.25;2.47;;;;;;;5.18;76.61;101339.72;346748;28;1061;-69
2021/03/19 00:56:31;;;;;;;3.53;2.53;;;;;;;5.16;76.32;101343.25;346698;28;1184;-68
2021/03/19 00:56:43;;;;;;;4.13;2.50;;;;;;;5.15;76.83;101341.50;346620;28;1107;-70
2021/03/19 00:56:54;;;;;;;4.10;2.50;;;;;;;5.15;77.10;101345.00;346754;28;1089;-69
2021/03/19 00:57:05;;;;;;;4.32;2.50;;;;;;;5.16;76.73;101341.47;346726;28;1093;-70
2021/03/19 00:57:16;;;;;;;3.58;2.40;;;;;;;5.14;76.25;101340.66;346841;28;1263;-70